createdAt,value
2023-04-20T00:01:07.134Z,3.83
2023-04-20T00:03:35.790Z,2.70
2023-04-20T00:06:04.388Z,3.95
2023-04-20T00:08:32.267Z,2.58
2023-04-20T00:11:03.387Z,3.00
2023-04-20T00:13:31.233Z,3.28
2023-04-20T00:15:58.792Z,4.40
2023-04-20T00:18:26.594Z,3.88
2023-04-20T00:20:54.347Z,5.00
2023-04-20T00:23:22.064Z,3.28
2023-04-20T00:25:49.900Z,3.85
2023-04-20T00:28:17.526Z,4.97
2023-04-20T00:30:45.058Z,4.78
2023-04-20T00:33:12.788Z,3.80
2023-04-20T00:35:42.949Z,2.70
2023-04-20T00:38:10.606Z,3.08
2023-04-20T00:40:38.075Z,3.47
2023-04-20T00:43:15.601Z,4.20
2023-04-20T00:45:43.604Z,8.40
2023-04-20T00:48:11.220Z,3.38
2023-04-20T00:50:40.764Z,2.28
2023-04-20T00:53:09.546Z,5.10
2023-04-20T00:55:38.943Z,3.40
2023-04-20T00:58:07.282Z,2.17
2023-04-20T01:00:35.814Z,2.85
2023-04-20T01:03:03.662Z,3.05
2023-04-20T01:05:31.437Z,2.50
2023-04-20T01:07:59.166Z,7.75
2023-04-20T01:10:31.037Z,3.15
2023-04-20T01:12:58.883Z,4.00
2023-04-20T01:15:27.226Z,2.72
2023-04-20T01:17:54.841Z,2.47
2023-04-20T01:20:23.919Z,2.58
2023-04-20T01:22:54.856Z,2.45
2023-04-20T01:25:22.492Z,2.25
2023-04-20T01:27:50.013Z,2.42
2023-04-20T01:30:17.710Z,3.22
2023-04-20T01:32:45.752Z,3.08
2023-04-20T01:35:14.327Z,5.30
2023-04-20T01:37:42.636Z,2.55
2023-04-20T01:40:13.136Z,4.78
2023-04-20T01:42:41.392Z,2.03
2023-04-20T01:45:09.990Z,2.88
2023-04-20T01:47:37.892Z,4.57
2023-04-20T01:50:08.601Z,4.88
2023-04-20T01:52:36.513Z,5.82
2023-04-20T01:55:04.477Z,2.13
2023-04-20T01:57:32.250Z,1.60
2023-04-20T02:00:00.438Z,5.45
2023-04-20T02:02:28.281Z,2.33
2023-04-20T02:04:56.078Z,2.13
2023-04-20T02:07:23.819Z,4.30
2023-04-20T02:09:51.385Z,2.42
2023-04-20T02:12:19.033Z,4.28
2023-04-20T02:14:47.132Z,2.33
2023-04-20T02:17:15.284Z,1.90
2023-04-20T02:19:43.008Z,3.25
2023-04-20T02:22:10.747Z,2.15
2023-04-20T02:24:38.429Z,3.60
2023-04-20T02:27:06.272Z,1.98
2023-04-20T02:29:33.836Z,1.90
2023-04-20T02:32:01.368Z,4.60
2023-04-20T02:34:28.973Z,2.13
2023-04-20T02:36:57.670Z,3.67
2023-04-20T02:39:25.171Z,3.15
2023-04-20T02:41:55.132Z,2.05
2023-04-20T02:44:22.814Z,3.25
2023-04-20T02:46:50.849Z,3.20
2023-04-20T02:49:19.775Z,2.65
2023-04-20T02:51:47.842Z,1.63
2023-04-20T02:54:15.319Z,1.45
2023-04-20T02:56:43.294Z,1.88
2023-04-20T02:59:11.801Z,2.20
2023-04-20T03:02:01.337Z,2.92
2023-04-20T03:04:31.326Z,2.83
2023-04-20T03:07:05.913Z,2.30
2023-04-20T03:09:37.264Z,3.63
2023-04-20T03:12:18.742Z,3.13
2023-04-20T03:15:01.861Z,2.90
2023-04-20T03:17:43.440Z,2.20
2023-04-20T03:20:13.648Z,2.47
2023-04-20T03:22:41.607Z,1.67
2023-04-20T03:25:09.980Z,2.45
2023-04-20T03:27:52.946Z,2.33
2023-04-20T03:30:20.911Z,1.95
2023-04-20T03:32:53.866Z,3.30
2023-04-20T03:35:21.703Z,2.88
2023-04-20T03:37:52.110Z,2.63
2023-04-20T03:40:19.920Z,3.25
2023-04-20T03:42:48.011Z,1.92
2023-04-20T03:45:16.049Z,2.45
2023-04-20T03:47:43.739Z,2.45
2023-04-20T03:50:11.593Z,2.80
2023-04-20T03:52:40.138Z,1.65
2023-04-20T03:55:08.597Z,2.55
2023-04-20T03:57:39.669Z,1.92
2023-04-20T04:00:11.191Z,2.13
2023-04-20T04:03:12.821Z,3.13
2023-04-20T04:05:41.861Z,3.42
2023-04-20T04:08:09.522Z,2.78
2023-04-20T04:10:37.165Z,1.77
2023-04-20T04:13:04.847Z,4.35
2023-04-20T04:15:35.121Z,2.00
2023-04-20T04:18:10.181Z,2.17
2023-04-20T04:20:39.320Z,6.75
2023-04-20T04:23:07.732Z,3.53
2023-04-20T04:25:44.250Z,2.63
2023-04-20T04:28:14.980Z,2.75
2023-04-20T04:31:12.456Z,5.50
2023-04-20T04:33:40.240Z,11.00
2023-04-20T04:36:09.701Z,6.15
2023-04-20T04:38:37.526Z,6.32
2023-04-20T04:41:08.171Z,8.00
2023-04-20T04:43:35.678Z,5.85
2023-04-20T04:46:16.077Z,5.13
2023-04-20T04:48:43.912Z,6.18
2023-04-20T04:51:12.626Z,3.55
2023-04-20T04:53:40.446Z,3.85
2023-04-20T04:56:08.473Z,7.10
2023-04-20T04:58:36.190Z,6.38
2023-04-20T05:01:03.930Z,9.77
2023-04-20T05:03:31.791Z,7.70
2023-04-20T05:05:59.426Z,5.15
2023-04-20T05:08:27.226Z,9.05
2023-04-20T05:10:54.747Z,6.32
2023-04-20T05:13:22.427Z,5.22
2023-04-20T05:15:50.003Z,4.22
2023-04-20T05:18:17.772Z,6.05
2023-04-20T05:20:45.350Z,5.63
2023-04-20T05:23:13.097Z,6.32
2023-04-20T05:25:40.982Z,9.07
2023-04-20T05:28:08.623Z,8.52
2023-04-20T05:30:36.533Z,5.07
2023-04-20T05:33:04.827Z,4.10
2023-04-20T05:35:33.208Z,6.93
2023-04-20T05:38:02.810Z,8.52
2023-04-20T05:40:30.617Z,5.82
2023-04-20T05:42:58.447Z,6.68
2023-04-20T05:45:26.785Z,6.63
2023-04-20T05:47:58.819Z,6.80
2023-04-20T05:50:27.463Z,4.05
2023-04-20T05:52:55.260Z,7.88
2023-04-20T05:55:23.218Z,6.13
2023-04-20T05:57:55.119Z,6.22
2023-04-20T06:00:25.758Z,7.32
2023-04-20T06:02:55.097Z,4.60
2023-04-20T06:05:23.148Z,7.82
2023-04-20T06:07:50.984Z,11.93
2023-04-20T06:10:18.611Z,4.93
2023-04-20T06:12:46.533Z,4.00
2023-04-20T06:15:14.304Z,5.13
2023-04-20T06:17:42.360Z,5.40
2023-04-20T06:20:13.385Z,6.15
2023-04-20T06:22:44.872Z,3.05
2023-04-20T06:25:13.784Z,3.88
2023-04-20T06:27:42.686Z,6.13
2023-04-20T06:30:11.557Z,5.10
2023-04-20T06:32:39.175Z,5.05
2023-04-20T06:35:09.907Z,4.85
2023-04-20T06:37:37.633Z,11.52
2023-04-20T06:40:09.727Z,8.27
2023-04-20T06:42:38.005Z,5.20
2023-04-20T06:45:08.277Z,5.43
2023-04-20T06:47:36.392Z,5.30
2023-04-20T06:50:10.251Z,7.38
2023-04-20T06:52:39.539Z,5.55
2023-04-20T06:55:08.352Z,5.95
2023-04-20T06:57:37.369Z,9.52
2023-04-20T07:00:08.811Z,7.40
2023-04-20T07:02:48.824Z,6.30
2023-04-20T07:05:17.671Z,11.13
2023-04-20T07:07:46.359Z,5.72
2023-04-20T07:10:15.325Z,6.00
2023-04-20T07:12:44.527Z,8.15
2023-04-20T07:15:12.963Z,4.50
2023-04-20T07:17:41.024Z,10.10
2023-04-20T07:20:10.325Z,6.32
2023-04-20T07:22:39.432Z,8.80
2023-04-20T07:25:09.768Z,5.50
2023-04-20T07:27:41.095Z,4.40
2023-04-20T07:30:10.854Z,6.45
2023-04-20T07:32:40.248Z,13.70
2023-04-20T07:35:08.605Z,7.80
2023-04-20T07:37:39.365Z,5.53
2023-04-20T07:40:07.993Z,4.13
2023-04-20T07:42:37.579Z,5.53
2023-04-20T07:45:07.484Z,7.70
2023-04-20T07:47:38.168Z,5.82
2023-04-20T07:50:09.752Z,4.20
2023-04-20T07:52:37.301Z,4.15
2023-04-20T07:55:08.357Z,9.02
2023-04-20T07:57:36.871Z,8.18
2023-04-20T08:00:10.065Z,4.93
2023-04-20T08:02:40.942Z,7.72
2023-04-20T08:05:10.745Z,4.43
2023-04-20T08:07:38.930Z,5.90
2023-04-20T08:10:08.314Z,11.32
2023-04-20T08:12:37.703Z,10.52
2023-04-20T08:15:10.014Z,6.28
2023-04-20T08:17:37.517Z,8.75
2023-04-20T08:20:06.555Z,8.65
2023-04-20T08:22:34.595Z,4.50
2023-04-20T08:25:02.349Z,3.47
2023-04-20T08:27:30.891Z,5.68
2023-04-20T08:29:58.989Z,3.38
2023-04-20T08:32:27.270Z,3.63
2023-04-20T08:34:55.685Z,5.80
2023-04-20T08:37:26.124Z,3.13
2023-04-20T08:39:53.858Z,4.13
2023-04-20T08:42:21.864Z,4.60
2023-04-20T08:44:50.138Z,5.30
2023-04-20T08:47:17.900Z,6.20
2023-04-20T08:49:46.755Z,4.32
2023-04-20T08:52:14.821Z,4.72
2023-04-20T08:54:55.302Z,3.92
2023-04-20T08:57:24.353Z,3.33
2023-04-20T08:59:52.193Z,4.03
2023-04-20T09:02:20.006Z,5.18
2023-04-20T09:04:50.798Z,4.43
2023-04-20T09:07:20.648Z,7.32
2023-04-20T09:09:59.562Z,2.22
2023-04-20T09:12:28.574Z,3.33
2023-04-20T09:14:57.085Z,6.70
2023-04-20T09:17:41.323Z,3.88
2023-04-20T09:20:13.790Z,4.07
2023-04-20T09:22:41.610Z,6.38
2023-04-20T09:25:16.897Z,3.03
2023-04-20T09:27:47.410Z,2.85
2023-04-20T09:30:15.072Z,2.47
2023-04-20T09:32:42.686Z,5.05
2023-04-20T09:35:10.400Z,4.07
2023-04-20T09:37:51.326Z,4.00
2023-04-20T09:40:21.689Z,3.47
2023-04-20T09:42:55.178Z,3.08
2023-04-20T09:45:23.634Z,3.15
2023-04-20T09:47:52.816Z,2.75
2023-04-20T09:50:29.041Z,3.85
2023-04-20T09:53:01.519Z,2.70
2023-04-20T09:55:34.600Z,6.35
2023-04-20T09:58:05.764Z,2.50
2023-04-20T10:00:33.306Z,3.35
2023-04-20T10:03:01.149Z,4.80
2023-04-20T10:05:40.035Z,2.80
2023-04-20T10:08:07.744Z,2.33
2023-04-20T10:10:50.687Z,2.97
2023-04-20T10:13:20.774Z,4.15
2023-04-20T10:15:48.575Z,4.47
2023-04-20T10:18:25.115Z,3.45
2023-04-20T10:21:09.814Z,3.70
2023-04-20T10:23:51.731Z,3.78
2023-04-20T10:26:19.738Z,3.03
2023-04-20T10:28:47.566Z,3.47
2023-04-20T10:31:17.299Z,4.72
2023-04-20T10:33:56.364Z,6.97
2023-04-20T10:36:30.184Z,5.93
2023-04-20T10:38:59.085Z,9.05
2023-04-20T10:41:27.376Z,8.32
2023-04-20T10:43:55.272Z,4.32
2023-04-20T10:46:26.431Z,7.57
2023-04-20T10:49:01.973Z,9.73
2023-04-20T10:51:30.796Z,6.22
2023-04-20T10:54:05.376Z,6.70
2023-04-20T10:56:45.084Z,3.65
2023-04-20T10:59:22.079Z,5.15
2023-04-20T11:01:54.013Z,5.22
2023-04-20T11:04:34.522Z,6.75
2023-04-20T11:07:09.435Z,2.53
2023-04-20T11:09:40.481Z,4.15
2023-04-20T11:12:12.329Z,3.80
2023-04-20T11:14:55.893Z,5.95
2023-04-20T11:17:38.039Z,4.65
2023-04-20T11:20:15.229Z,9.18
2023-04-20T11:22:44.837Z,4.75
2023-04-20T11:25:13.786Z,4.93
2023-04-20T11:27:45.123Z,4.93
2023-04-20T11:30:13.181Z,8.85
2023-04-20T11:32:41.124Z,3.08
2023-04-20T11:35:11.397Z,7.38
2023-04-20T11:37:53.927Z,3.13
2023-04-20T11:40:21.705Z,4.10
2023-04-20T11:42:49.254Z,3.65
2023-04-20T11:45:18.049Z,5.72
2023-04-20T11:47:46.123Z,4.78
2023-04-20T11:50:14.660Z,4.32
2023-04-20T11:52:42.368Z,3.95
2023-04-20T11:55:11.659Z,4.25
2023-04-20T11:57:39.315Z,5.25
2023-04-20T12:00:08.379Z,3.28
2023-04-20T12:02:41.956Z,4.80
2023-04-20T12:05:10.388Z,3.08
2023-04-20T12:07:38.164Z,4.22
2023-04-20T12:10:11.543Z,5.90
2023-04-20T12:12:38.968Z,4.03
2023-04-20T12:15:07.867Z,6.20
2023-04-20T12:17:35.819Z,3.90
2023-04-20T12:20:05.353Z,5.47
2023-04-20T12:22:33.060Z,8.23
2023-04-20T12:25:01.042Z,2.95
2023-04-20T12:27:28.673Z,7.57
2023-04-20T12:29:56.365Z,3.92
2023-04-20T12:32:25.816Z,4.78
2023-04-20T12:34:53.529Z,5.50
2023-04-20T12:37:23.661Z,2.60
2023-04-20T12:39:51.611Z,6.88
2023-04-20T12:42:19.614Z,3.53
2023-04-20T12:44:47.223Z,6.00
2023-04-20T12:47:14.950Z,5.70
2023-04-20T12:49:42.633Z,5.60
2023-04-20T12:52:10.316Z,3.97
2023-04-20T12:54:37.834Z,3.45
2023-04-20T12:57:05.726Z,8.55
2023-04-20T12:59:33.385Z,2.85
2023-04-20T13:02:04.702Z,5.47
2023-04-20T13:04:32.578Z,3.20
2023-04-20T13:07:00.308Z,5.57
2023-04-20T13:09:28.121Z,2.67
2023-04-20T13:11:56.525Z,2.90
2023-04-20T13:14:24.218Z,5.03
2023-04-20T13:16:54.374Z,3.55
2023-04-20T13:19:23.086Z,4.78
2023-04-20T13:21:50.761Z,6.15
2023-04-20T13:24:18.594Z,4.07
2023-04-20T13:26:46.522Z,2.92
2023-04-20T13:29:15.088Z,7.07
2023-04-20T13:31:42.799Z,6.60
2023-04-20T13:34:10.480Z,4.15
2023-04-20T13:36:38.019Z,4.40
2023-04-20T13:39:05.810Z,5.70
2023-04-20T13:41:33.548Z,5.80
2023-04-20T13:44:02.031Z,4.50
2023-04-20T13:46:30.531Z,4.53
2023-04-20T13:49:00.968Z,3.50
2023-04-20T13:51:28.590Z,3.47
2023-04-20T13:53:56.163Z,6.82
2023-04-20T13:56:23.840Z,7.57
2023-04-20T13:58:51.321Z,4.80
2023-04-20T14:01:19.086Z,8.18
2023-04-20T14:03:46.879Z,4.93
2023-04-20T14:06:14.686Z,4.03
2023-04-20T14:08:42.402Z,4.38
2023-04-20T14:11:10.117Z,5.03
2023-04-20T14:13:39.113Z,4.93
2023-04-20T14:16:14.753Z,6.03
2023-04-20T14:18:42.736Z,3.85
2023-04-20T14:21:10.172Z,9.52
2023-04-20T14:23:37.695Z,6.85
2023-04-20T14:26:05.456Z,5.88
2023-04-20T14:28:34.369Z,4.05
2023-04-20T14:31:03.319Z,4.60
2023-04-20T14:33:30.963Z,7.90
2023-04-20T14:35:58.738Z,7.80
2023-04-20T14:38:26.268Z,12.40
2023-04-20T14:40:54.552Z,6.93
2023-04-20T14:43:22.182Z,6.60
2023-04-20T14:45:51.610Z,2.88
2023-04-20T14:48:19.731Z,13.07
2023-04-20T14:50:47.852Z,13.57
2023-04-20T14:53:15.846Z,13.95
2023-04-20T14:55:43.501Z,12.75
2023-04-20T14:58:19.466Z,9.15
2023-04-20T15:00:49.278Z,11.13
2023-04-20T15:03:19.805Z,14.55
2023-04-20T15:05:48.303Z,13.82
2023-04-20T15:08:15.969Z,10.90
2023-04-20T15:10:43.625Z,13.82
2023-04-20T15:13:13.617Z,15.93
2023-04-20T15:15:49.017Z,13.43
2023-04-20T15:18:19.325Z,9.52
2023-04-20T15:20:49.763Z,16.13
2023-04-20T15:23:17.506Z,11.23
2023-04-20T15:25:48.030Z,9.50
2023-04-20T15:28:15.765Z,11.02
2023-04-20T15:30:45.055Z,9.23
2023-04-20T15:33:12.885Z,9.02
2023-04-20T15:35:40.779Z,10.35
2023-04-20T15:38:09.511Z,7.88
2023-04-20T15:40:39.063Z,16.20
2023-04-20T15:43:07.989Z,9.05
2023-04-20T15:45:36.061Z,12.18
2023-04-20T15:48:04.061Z,8.65
2023-04-20T15:50:31.953Z,9.43
2023-04-20T15:53:01.370Z,13.50
2023-04-20T15:55:34.767Z,12.85
2023-04-20T15:58:02.488Z,11.98
2023-04-20T16:00:30.724Z,11.43
2023-04-20T16:03:01.697Z,11.10
2023-04-20T16:05:29.895Z,10.73
2023-04-20T16:07:58.118Z,17.70
2023-04-20T16:10:29.892Z,23.25
2023-04-20T16:12:57.754Z,23.98
2023-04-20T16:15:25.500Z,20.25
2023-04-20T16:17:54.554Z,18.88
2023-04-20T16:20:22.412Z,21.17
2023-04-20T16:22:50.393Z,34.92
2023-04-20T16:25:23.324Z,31.75
2023-04-20T16:27:51.872Z,33.30
2023-04-20T16:30:20.730Z,41.40
2023-04-20T16:32:48.464Z,30.00
2023-04-20T16:35:16.584Z,32.05
2023-04-20T16:37:44.680Z,31.20
2023-04-20T16:40:12.558Z,23.48
2023-04-20T16:42:40.022Z,30.77
2023-04-20T16:45:08.488Z,24.35
2023-04-20T16:47:36.282Z,25.23
2023-04-20T16:50:07.408Z,23.67
2023-04-20T16:52:35.703Z,19.55
2023-04-20T16:55:04.598Z,15.90
2023-04-20T16:57:32.564Z,24.13
2023-04-20T17:00:00.317Z,28.23
2023-04-20T17:02:33.207Z,21.00
2023-04-20T17:05:01.687Z,24.25
2023-04-20T17:07:29.752Z,16.95
2023-04-20T17:10:00.462Z,23.58
2023-04-20T17:12:28.466Z,18.63
2023-04-20T17:14:57.484Z,18.10
2023-04-20T17:17:26.415Z,20.00
2023-04-20T17:19:54.456Z,22.77
2023-04-20T17:22:22.192Z,16.50
2023-04-20T17:24:49.857Z,18.50
2023-04-20T17:27:17.768Z,18.15
2023-04-20T17:29:48.042Z,13.55
2023-04-20T17:32:15.793Z,20.02
2023-04-20T17:34:48.819Z,12.82
2023-04-20T17:37:16.731Z,15.90
2023-04-20T17:39:44.572Z,12.52
2023-04-20T17:42:15.231Z,14.35
2023-04-20T17:44:42.989Z,14.10
2023-04-20T17:47:10.773Z,14.27
2023-04-20T17:49:39.757Z,11.88
2023-04-20T17:52:08.396Z,15.20
2023-04-20T17:54:36.335Z,12.43
2023-04-20T17:57:04.183Z,11.48
2023-04-20T17:59:32.039Z,14.65
2023-04-20T18:02:00.205Z,9.57
2023-04-20T18:04:28.593Z,15.65
2023-04-20T18:06:56.492Z,13.07
2023-04-20T18:09:24.311Z,13.07
2023-04-20T18:11:52.146Z,11.13
2023-04-20T18:14:20.028Z,13.65
2023-04-20T18:16:52.066Z,11.70
2023-04-20T18:19:23.016Z,11.85
2023-04-20T18:21:50.755Z,13.52
2023-04-20T18:24:19.038Z,8.40
2023-04-20T18:26:46.897Z,10.88
2023-04-20T18:29:14.634Z,8.82
2023-04-20T18:31:43.208Z,8.70
2023-04-20T18:34:12.091Z,9.75
2023-04-20T18:36:40.805Z,12.80
2023-04-20T18:39:11.544Z,11.27
2023-04-20T18:41:39.601Z,9.35
2023-04-20T18:44:10.672Z,8.30
2023-04-20T18:46:39.150Z,10.25
2023-04-20T18:49:06.858Z,10.13
2023-04-20T18:51:35.003Z,9.57
2023-04-20T18:54:03.093Z,11.18
2023-04-20T18:56:31.105Z,9.27
2023-04-20T18:58:59.894Z,9.38
2023-04-20T19:01:27.669Z,7.40
2023-04-20T19:03:55.501Z,9.05
2023-04-20T19:06:23.102Z,8.55
2023-04-20T19:08:51.574Z,6.97
2023-04-20T19:11:19.076Z,7.93
2023-04-20T19:13:46.643Z,7.63
2023-04-20T19:16:14.292Z,7.55
2023-04-20T19:18:42.360Z,8.73
2023-04-20T19:21:11.985Z,9.45
2023-04-20T19:23:40.086Z,8.70
2023-04-20T19:26:11.222Z,9.90
2023-04-20T19:28:41.624Z,11.25
2023-04-20T19:31:11.258Z,7.00
2023-04-20T19:33:42.267Z,7.82
2023-04-20T19:36:11.400Z,8.15
2023-04-20T19:38:39.671Z,6.07
2023-04-20T19:41:10.563Z,8.55
2023-04-20T19:43:38.687Z,9.52
2023-04-20T19:46:10.038Z,7.13
2023-04-20T19:48:41.363Z,7.05
2023-04-20T19:51:10.647Z,6.13
2023-04-20T19:53:38.744Z,7.05
2023-04-20T19:56:06.852Z,6.28
2023-04-20T19:58:34.720Z,6.90
2023-04-20T20:01:02.396Z,7.93
2023-04-20T20:03:33.217Z,8.32
2023-04-20T20:06:01.286Z,8.90
2023-04-20T20:08:29.274Z,6.45
2023-04-20T20:10:57.396Z,6.95
2023-04-20T20:13:25.315Z,8.43
2023-04-20T20:15:54.620Z,7.68
2023-04-20T20:18:25.220Z,5.95
2023-04-20T20:20:52.920Z,12.45
2023-04-20T20:23:20.813Z,11.90
2023-04-20T20:25:48.432Z,22.75
2023-04-20T20:28:16.117Z,17.52
2023-04-20T20:30:45.560Z,19.95
2023-04-20T20:33:14.002Z,13.77
2023-04-20T20:35:41.800Z,18.10
2023-04-20T20:38:12.425Z,22.95
2023-04-20T20:40:40.461Z,16.83
2023-04-20T20:43:08.925Z,23.45
2023-04-20T20:45:37.603Z,27.13
2023-04-20T20:48:06.051Z,15.18
2023-04-20T20:50:34.420Z,21.55
2023-04-20T20:53:02.345Z,16.38
2023-04-20T20:55:30.401Z,10.90
2023-04-20T20:57:58.276Z,14.27
2023-04-20T21:00:26.395Z,12.93
2023-04-20T21:02:54.193Z,18.60
2023-04-20T21:05:23.083Z,16.33
2023-04-20T21:07:51.256Z,12.13
2023-04-20T21:10:19.270Z,15.25
2023-04-20T21:12:47.111Z,12.98
2023-04-20T21:15:14.792Z,13.20
2023-04-20T21:17:42.481Z,10.65
2023-04-20T21:20:11.232Z,8.30
2023-04-20T21:22:38.946Z,8.35
2023-04-20T21:25:07.596Z,7.75
2023-04-20T21:27:35.228Z,8.45
2023-04-20T21:30:03.203Z,10.48
2023-04-20T21:32:31.003Z,9.38
2023-04-20T21:34:58.797Z,5.88
2023-04-20T21:37:27.092Z,14.07
2023-04-20T21:39:54.716Z,8.55
2023-04-20T21:42:22.411Z,17.17
2023-04-20T21:44:50.069Z,12.77
2023-04-20T21:47:20.648Z,17.48
2023-04-20T21:49:48.361Z,17.48
2023-04-20T21:52:16.505Z,13.88
2023-04-20T21:54:49.896Z,13.50
2023-04-20T21:57:17.708Z,10.85
2023-04-20T21:59:45.496Z,12.23
2023-04-20T22:02:13.878Z,12.57
2023-04-20T22:04:42.204Z,12.35
2023-04-20T22:07:10.119Z,13.07
2023-04-20T22:09:37.792Z,11.23
2023-04-20T22:12:05.880Z,11.43
2023-04-20T22:14:33.669Z,13.18
2023-04-20T22:17:01.960Z,16.88
2023-04-20T22:19:29.788Z,9.57
2023-04-20T22:21:57.687Z,8.45
2023-04-20T22:24:25.546Z,14.18
2023-04-20T22:26:53.415Z,12.82
2023-04-20T22:29:21.855Z,10.27
2023-04-20T22:31:49.722Z,10.52
2023-04-20T22:34:17.296Z,7.95
2023-04-20T22:36:44.915Z,12.02
2023-04-20T22:39:12.653Z,8.05
2023-04-20T22:41:40.328Z,6.55
2023-04-20T22:44:10.468Z,10.85
2023-04-20T22:46:38.126Z,9.35
2023-04-20T22:49:05.787Z,8.02
2023-04-20T22:51:33.726Z,6.60
2023-04-20T22:54:02.758Z,10.40
2023-04-20T22:56:30.686Z,7.25
2023-04-20T22:58:58.571Z,8.52
2023-04-20T23:01:26.618Z,7.60
2023-04-20T23:03:54.833Z,8.00
2023-04-20T23:06:23.380Z,6.22
2023-04-20T23:08:51.590Z,8.63
2023-04-20T23:11:19.324Z,7.15
2023-04-20T23:13:48.106Z,7.07
2023-04-20T23:16:16.122Z,6.25
2023-04-20T23:18:43.909Z,7.53
2023-04-20T23:21:12.600Z,8.98
2023-04-20T23:23:40.240Z,9.65
2023-04-20T23:26:07.980Z,6.13
2023-04-20T23:28:36.015Z,5.63
2023-04-20T23:31:03.680Z,7.68
2023-04-20T23:33:31.132Z,6.70
2023-04-20T23:36:00.169Z,6.82
2023-04-20T23:38:27.805Z,6.75
2023-04-20T23:40:55.349Z,7.15
2023-04-20T23:43:23.016Z,10.27
2023-04-20T23:45:50.716Z,5.00
2023-04-20T23:48:21.140Z,5.90
2023-04-20T23:50:50.237Z,5.15
2023-04-20T23:53:18.138Z,5.70
2023-04-20T23:55:56.156Z,5.78
2023-04-20T23:58:30.155Z,11.15
